createdAt,value
2019-05-25T00:00:03.753Z,54.22
2019-05-25T00:02:32.361Z,54.21
2019-05-25T00:05:00.927Z,54.36
2019-05-25T00:07:29.394Z,54.45
2019-05-25T00:09:57.813Z,54.53
2019-05-25T00:12:26.485Z,54.65
2019-05-25T00:14:54.889Z,54.72
2019-05-25T00:17:23.381Z,54.80
2019-05-25T00:19:51.782Z,55.01
2019-05-25T00:22:20.181Z,55.20
2019-05-25T00:24:48.793Z,55.35
2019-05-25T00:27:17.270Z,55.46
2019-05-25T00:29:45.661Z,55.54
2019-05-25T00:32:14.087Z,55.71
2019-05-25T00:34:42.485Z,55.88
2019-05-25T00:37:11.129Z,56.09
2019-05-25T00:39:39.555Z,56.34
2019-05-25T00:42:07.949Z,56.49
2019-05-25T00:44:36.350Z,56.49
2019-05-25T00:47:04.869Z,56.52
2019-05-25T00:49:33.301Z,56.69
2019-05-25T00:52:01.717Z,57.00
2019-05-25T00:54:30.581Z,57.28
2019-05-25T00:56:58.977Z,57.45
2019-05-25T00:59:27.449Z,57.55
2019-05-25T01:01:55.866Z,57.62
2019-05-25T01:04:24.258Z,57.62
2019-05-25T01:06:52.659Z,57.61
2019-05-25T01:09:21.247Z,57.53
2019-05-25T01:11:49.645Z,57.54
2019-05-25T01:14:18.061Z,57.51
2019-05-25T01:16:46.532Z,57.49
2019-05-25T01:19:14.942Z,57.62
2019-05-25T01:21:43.314Z,57.69
2019-05-25T01:24:11.807Z,57.56
2019-05-25T01:26:40.206Z,57.52
2019-05-25T01:29:08.671Z,57.49
2019-05-25T01:31:37.133Z,57.50
2019-05-25T01:34:05.518Z,57.50
2019-05-25T01:36:33.983Z,57.47
2019-05-25T01:39:02.387Z,57.56
2019-05-25T01:41:30.790Z,57.60
2019-05-25T01:43:59.231Z,57.58
2019-05-25T01:46:27.656Z,57.60
2019-05-25T01:48:56.053Z,57.53
2019-05-25T01:51:24.450Z,57.51
2019-05-25T01:53:52.875Z,57.62
2019-05-25T01:56:21.301Z,57.76
2019-05-25T01:58:49.725Z,57.81
2019-05-25T02:01:18.165Z,57.82
2019-05-25T02:03:46.565Z,58.01
2019-05-25T02:06:15.027Z,58.29
2019-05-25T02:08:43.557Z,58.55
2019-05-25T02:11:11.956Z,58.77
2019-05-25T02:13:40.418Z,58.93
2019-05-25T02:16:09.481Z,59.04
2019-05-25T02:18:37.887Z,59.21
2019-05-25T02:21:06.283Z,59.45
2019-05-25T02:23:34.706Z,59.67
2019-05-25T02:26:03.097Z,59.73
2019-05-25T02:28:31.599Z,59.72
2019-05-25T02:31:00.020Z,59.84
2019-05-25T02:33:28.417Z,60.12
2019-05-25T02:35:56.820Z,60.19
2019-05-25T02:38:25.271Z,60.21
2019-05-25T02:40:53.737Z,60.00
2019-05-25T02:43:22.138Z,59.83
2019-05-25T02:45:50.764Z,59.83
2019-05-25T02:48:19.164Z,59.89
2019-05-25T02:50:47.830Z,59.87
2019-05-25T02:53:16.254Z,59.98
2019-05-25T02:55:44.652Z,60.09
2019-05-25T02:58:13.051Z,60.14
2019-05-25T03:00:41.497Z,60.07
2019-05-25T03:03:09.894Z,59.95
2019-05-25T03:05:38.370Z,60.00
2019-05-25T03:08:06.882Z,60.09
2019-05-25T03:10:36.328Z,60.15
2019-05-25T03:13:05.448Z,60.29
2019-05-25T03:15:33.869Z,60.40
2019-05-25T03:18:02.408Z,60.45
2019-05-25T03:20:30.802Z,60.51
2019-05-25T03:22:59.258Z,60.59
2019-05-25T03:25:27.697Z,60.52
2019-05-25T03:27:56.170Z,60.41
2019-05-25T03:30:35.428Z,60.35
2019-05-25T03:33:04.081Z,60.30
2019-05-25T03:35:32.708Z,60.23
2019-05-25T03:38:01.145Z,60.25
2019-05-25T03:40:29.602Z,60.07
2019-05-25T03:42:57.997Z,59.83
2019-05-25T03:45:26.464Z,59.78
2019-05-25T03:47:54.826Z,59.71
2019-05-25T03:50:23.225Z,59.50
2019-05-25T03:52:51.707Z,59.40
2019-05-25T03:55:20.241Z,59.36
2019-05-25T03:57:48.645Z,59.33
2019-05-25T04:00:19.153Z,59.33
2019-05-25T04:02:47.570Z,59.55
2019-05-25T04:05:15.974Z,59.78
2019-05-25T04:07:44.575Z,60.16
2019-05-25T04:10:13.137Z,60.42
2019-05-25T04:12:41.537Z,60.61
2019-05-25T04:15:10.318Z,60.66
2019-05-25T04:17:38.824Z,60.62
2019-05-25T04:20:07.956Z,60.50
2019-05-25T04:22:36.374Z,60.39
2019-05-25T04:25:06.508Z,60.34
2019-05-25T04:27:34.898Z,60.39
2019-05-25T04:30:04.394Z,60.74
2019-05-25T04:32:32.799Z,61.11
2019-05-25T04:35:01.356Z,61.22
2019-05-25T04:37:30.014Z,61.20
2019-05-25T04:39:58.410Z,61.13
2019-05-25T04:42:26.810Z,61.17
2019-05-25T04:44:55.249Z,61.11
2019-05-25T04:47:27.041Z,61.01
2019-05-25T04:49:53.772Z,60.87
2019-05-25T04:52:22.246Z,60.94
2019-05-25T04:54:50.770Z,60.93
2019-05-25T04:57:19.170Z,61.03
2019-05-25T04:59:47.728Z,61.23
2019-05-25T05:02:16.134Z,61.24
2019-05-25T05:04:44.525Z,61.29
2019-05-25T05:07:12.968Z,61.37
2019-05-25T05:09:41.418Z,61.28
2019-05-25T05:12:09.763Z,61.20
2019-05-25T05:14:38.212Z,61.18
2019-05-25T05:17:06.688Z,61.18
2019-05-25T05:19:35.122Z,61.20
2019-05-25T05:22:05.806Z,61.30
2019-05-25T05:24:33.817Z,61.16
2019-05-25T05:27:02.228Z,61.15
2019-05-25T05:29:30.645Z,61.12
2019-05-25T05:31:59.045Z,61.22
2019-05-25T05:34:27.447Z,61.42
2019-05-25T05:36:56.517Z,61.43
2019-05-25T05:39:26.659Z,61.67
2019-05-25T05:41:55.962Z,61.80
2019-05-25T05:44:27.019Z,61.89
2019-05-25T05:46:57.793Z,61.74
2019-05-25T05:49:27.974Z,61.49
2019-05-25T05:51:59.697Z,61.30
2019-05-25T05:54:28.636Z,61.30
2019-05-25T05:57:11.036Z,61.20
2019-05-25T05:59:27.289Z,61.17
2019-05-25T06:01:55.689Z,61.05
2019-05-25T06:04:24.166Z,61.04
2019-05-25T06:06:52.582Z,61.04
2019-05-25T06:09:20.997Z,60.98
2019-05-25T06:11:49.402Z,60.81
2019-05-25T06:14:18.071Z,60.38
2019-05-25T06:16:46.469Z,59.95
2019-05-25T06:19:15.013Z,59.63
2019-05-25T06:21:43.475Z,59.45
2019-05-25T06:24:11.851Z,59.12
2019-05-25T06:26:40.328Z,58.90
2019-05-25T06:29:08.859Z,58.97
2019-05-25T06:31:37.267Z,58.69
2019-05-25T06:34:05.664Z,58.26
2019-05-25T06:36:34.089Z,58.04
2019-05-25T06:39:02.500Z,57.93
2019-05-25T06:41:30.896Z,57.85
2019-05-25T06:43:59.535Z,57.64
2019-05-25T06:46:27.941Z,57.50
2019-05-25T06:48:56.350Z,57.53
2019-05-25T06:51:24.799Z,57.51
2019-05-25T06:53:53.270Z,57.29
2019-05-25T06:56:21.666Z,57.21
2019-05-25T06:58:50.086Z,57.02
2019-05-25T07:01:18.583Z,56.70
2019-05-25T07:03:47.142Z,56.06
2019-05-25T07:06:15.863Z,55.77
2019-05-25T07:08:44.267Z,55.67
2019-05-25T07:11:12.669Z,55.71
2019-05-25T07:13:41.101Z,55.31
2019-05-25T07:16:09.576Z,54.63
2019-05-25T07:18:38.057Z,54.86
2019-05-25T07:21:06.770Z,55.29
2019-05-25T07:23:36.340Z,55.34
2019-05-25T07:26:04.903Z,55.33
2019-05-25T07:28:33.341Z,55.25
2019-05-25T07:31:01.759Z,54.74
2019-05-25T07:33:30.146Z,54.45
2019-05-25T07:35:58.581Z,54.42
2019-05-25T07:38:26.976Z,54.82
2019-05-25T07:40:55.445Z,55.19
2019-05-25T07:43:23.871Z,55.00
2019-05-25T07:45:52.280Z,54.73
2019-05-25T07:48:20.713Z,54.46
2019-05-25T07:50:49.145Z,54.28
2019-05-25T07:53:17.553Z,54.46
2019-05-25T07:55:45.942Z,54.11
2019-05-25T07:58:18.106Z,53.25
2019-05-25T08:00:44.605Z,52.21
2019-05-25T08:03:13.041Z,51.93
2019-05-25T08:05:41.474Z,51.91
2019-05-25T08:08:09.873Z,51.41
2019-05-25T08:10:38.273Z,51.50
2019-05-25T08:13:06.753Z,51.78
2019-05-25T08:15:35.115Z,51.73
2019-05-25T08:18:03.513Z,51.70
2019-05-25T08:20:31.941Z,51.65
2019-05-25T08:23:00.373Z,51.56
2019-05-25T08:25:28.907Z,51.09
2019-05-25T08:27:57.474Z,50.49
2019-05-25T08:30:25.888Z,50.33
2019-05-25T08:32:54.273Z,50.25
2019-05-25T08:35:22.823Z,49.92
2019-05-25T08:37:51.219Z,50.19
2019-05-25T08:40:19.681Z,50.71
2019-05-25T08:42:48.110Z,51.01
2019-05-25T08:45:26.031Z,50.72
2019-05-25T08:47:57.036Z,50.57
2019-05-25T08:50:37.172Z,51.03
2019-05-25T08:52:54.884Z,50.97
2019-05-25T08:55:23.310Z,50.44
2019-05-25T08:57:51.723Z,49.85
2019-05-25T09:00:20.509Z,49.27
2019-05-25T09:02:48.880Z,48.54
2019-05-25T09:05:17.533Z,48.30
2019-05-25T09:07:45.944Z,47.78
2019-05-25T09:10:14.838Z,47.00
2019-05-25T09:12:43.234Z,47.18
2019-05-25T09:15:12.078Z,46.93
2019-05-25T09:17:40.501Z,45.75
2019-05-25T09:20:11.445Z,44.04
2019-05-25T09:22:39.993Z,43.44
2019-05-25T09:25:09.478Z,43.22
2019-05-25T09:27:37.949Z,43.30
2019-05-25T09:30:08.087Z,43.25
2019-05-25T09:32:36.522Z,42.34
2019-05-25T09:35:08.193Z,42.44
2019-05-25T09:37:36.600Z,42.64
2019-05-25T09:40:06.833Z,42.69
2019-05-25T09:42:35.238Z,43.22
2019-05-25T09:45:05.401Z,42.78
2019-05-25T09:47:33.835Z,42.02
2019-05-25T09:50:02.277Z,42.39
2019-05-25T09:52:30.658Z,42.38
2019-05-25T09:54:59.278Z,43.08
2019-05-25T09:57:27.673Z,43.50
2019-05-25T09:59:56.065Z,42.65
2019-05-25T10:02:24.588Z,42.20
2019-05-25T10:04:52.982Z,42.18
2019-05-25T10:07:21.383Z,42.12
2019-05-25T10:09:49.864Z,40.75
2019-05-25T10:12:18.235Z,40.78
2019-05-25T10:14:46.685Z,41.38
2019-05-25T10:17:15.119Z,41.96
2019-05-25T10:19:43.588Z,41.38
2019-05-25T10:22:11.990Z,40.74
2019-05-25T10:24:40.420Z,40.11
2019-05-25T10:27:08.877Z,39.75
2019-05-25T10:29:37.861Z,39.58
2019-05-25T10:32:06.493Z,39.22
2019-05-25T10:34:34.870Z,39.35
2019-05-25T10:37:03.268Z,38.71
2019-05-25T10:39:31.755Z,38.82
2019-05-25T10:42:00.151Z,37.45
2019-05-25T10:44:28.553Z,37.06
2019-05-25T10:46:56.987Z,37.77
2019-05-25T10:49:25.382Z,36.97
2019-05-25T10:51:53.772Z,37.33
2019-05-25T10:54:22.270Z,37.64
2019-05-25T10:56:50.822Z,37.70
2019-05-25T10:59:19.374Z,36.54
2019-05-25T11:01:47.923Z,36.26
2019-05-25T11:04:16.317Z,36.98
2019-05-25T11:06:44.714Z,37.44
2019-05-25T11:09:13.144Z,37.22
2019-05-25T11:11:41.538Z,36.77
2019-05-25T11:14:09.938Z,36.58
2019-05-25T11:16:38.544Z,35.67
2019-05-25T11:19:07.011Z,34.96
2019-05-25T11:21:35.442Z,35.30
2019-05-25T11:24:03.879Z,35.73
2019-05-25T11:26:32.282Z,35.42
2019-05-25T11:29:00.712Z,34.64
2019-05-25T11:31:29.505Z,34.21
2019-05-25T11:33:58.035Z,33.79
2019-05-25T11:36:26.513Z,34.28
2019-05-25T11:38:54.941Z,33.96
2019-05-25T11:41:23.345Z,32.76
2019-05-25T11:43:51.746Z,31.83
2019-05-25T11:46:20.176Z,32.33
2019-05-25T11:48:48.571Z,31.99
2019-05-25T11:51:16.962Z,32.37
2019-05-25T11:53:45.384Z,32.53
2019-05-25T11:56:13.781Z,33.54
2019-05-25T11:58:47.560Z,32.91
2019-05-25T12:01:12.438Z,32.86
2019-05-25T12:03:40.817Z,32.89
2019-05-25T12:06:09.215Z,32.89
2019-05-25T12:08:37.762Z,31.10
2019-05-25T12:11:06.209Z,32.08
2019-05-25T12:13:34.600Z,31.52
2019-05-25T12:16:03.048Z,31.61
2019-05-25T12:18:31.453Z,32.83
2019-05-25T12:20:59.859Z,33.45
2019-05-25T12:23:28.274Z,34.14
2019-05-25T12:25:56.669Z,33.75
2019-05-25T12:28:25.060Z,33.82
2019-05-25T12:30:53.497Z,33.88
2019-05-25T12:33:21.890Z,33.44
2019-05-25T12:35:50.291Z,32.45
2019-05-25T12:38:18.722Z,31.94
2019-05-25T12:40:53.533Z,32.07
2019-05-25T12:43:17.737Z,32.49
2019-05-25T12:45:49.189Z,32.81
2019-05-25T12:48:17.587Z,31.94
2019-05-25T12:50:45.987Z,33.42
2019-05-25T12:53:14.409Z,34.26
2019-05-25T12:55:42.825Z,34.90
2019-05-25T12:58:12.361Z,35.04
2019-05-25T13:00:55.153Z,34.94
2019-05-25T13:03:11.150Z,34.83
2019-05-25T13:05:39.601Z,35.04
2019-05-25T13:08:08.134Z,35.40
2019-05-25T13:10:36.528Z,35.63
2019-05-25T13:13:05.184Z,35.42
2019-05-25T13:15:33.601Z,35.51
2019-05-25T13:18:02.015Z,36.30
2019-05-25T13:20:30.413Z,36.46
2019-05-25T13:22:58.838Z,35.81
2019-05-25T13:25:27.239Z,35.92
2019-05-25T13:27:55.635Z,37.58
2019-05-25T13:30:24.147Z,38.93
2019-05-25T13:32:52.551Z,40.13
2019-05-25T13:35:20.945Z,40.75
2019-05-25T13:37:49.369Z,41.51
2019-05-25T13:40:17.848Z,42.11
2019-05-25T13:42:46.428Z,43.27
2019-05-25T13:45:15.978Z,44.04
2019-05-25T13:47:44.382Z,44.56
2019-05-25T13:50:13.209Z,45.29
2019-05-25T13:52:42.041Z,46.73
2019-05-25T13:55:10.983Z,47.43
2019-05-25T13:57:39.463Z,47.88
2019-05-25T14:00:09.450Z,47.96
2019-05-25T14:02:37.853Z,47.78
2019-05-25T14:05:07.086Z,47.38
2019-05-25T14:07:35.606Z,47.40
2019-05-25T14:10:08.561Z,47.31
2019-05-25T14:12:37.025Z,47.75
2019-05-25T14:15:09.579Z,47.54
2019-05-25T14:17:37.972Z,47.44
2019-05-25T14:20:07.211Z,47.81
2019-05-25T14:22:37.163Z,47.91
2019-05-25T14:25:07.769Z,47.79
2019-05-25T14:27:36.171Z,47.26
2019-05-25T14:30:06.117Z,47.00
2019-05-25T14:32:34.585Z,46.92
2019-05-25T14:35:02.994Z,46.56
2019-05-25T14:37:31.415Z,46.59
2019-05-25T14:39:59.981Z,46.76
2019-05-25T14:42:28.383Z,46.84
2019-05-25T14:44:57.753Z,47.35
2019-05-25T14:47:26.172Z,47.30
2019-05-25T14:49:54.552Z,47.24
2019-05-25T14:52:23.009Z,47.52
2019-05-25T14:54:51.419Z,47.80
2019-05-25T14:57:19.814Z,47.64
2019-05-25T14:59:48.269Z,47.39
2019-05-25T15:02:16.676Z,47.22
2019-05-25T15:04:45.513Z,47.08
2019-05-25T15:07:14.164Z,47.26
2019-05-25T15:09:42.789Z,47.11
2019-05-25T15:12:11.246Z,47.05
2019-05-25T15:14:39.741Z,47.15
2019-05-25T15:17:08.167Z,47.38
2019-05-25T15:19:36.582Z,47.72
2019-05-25T15:22:05.751Z,47.94
2019-05-25T15:24:34.324Z,47.80
2019-05-25T15:27:02.814Z,47.90
2019-05-25T15:29:31.355Z,48.08
2019-05-25T15:31:59.758Z,48.45
2019-05-25T15:34:31.261Z,49.01
2019-05-25T15:36:59.760Z,49.74
2019-05-25T15:39:28.227Z,50.32
2019-05-25T15:41:56.631Z,50.56
2019-05-25T15:44:25.431Z,50.77
2019-05-25T15:46:53.859Z,50.81
2019-05-25T15:49:32.433Z,50.97
2019-05-25T15:51:52.418Z,51.83
2019-05-25T15:54:20.897Z,53.82
2019-05-25T15:56:49.296Z,55.68
2019-05-25T15:59:17.739Z,57.07
2019-05-25T16:01:46.168Z,58.58
2019-05-25T16:04:14.573Z,59.33
2019-05-25T16:06:43.076Z,60.50
2019-05-25T16:09:11.474Z,61.48
2019-05-25T16:11:39.873Z,62.37
2019-05-25T16:14:08.368Z,62.28
2019-05-25T16:16:36.778Z,62.26
2019-05-25T16:19:05.185Z,62.80
2019-05-25T16:21:33.713Z,63.12
2019-05-25T16:24:02.104Z,63.43
2019-05-25T16:26:44.949Z,63.74
2019-05-25T16:29:01.130Z,63.98
2019-05-25T16:31:29.536Z,64.14
2019-05-25T16:33:58.183Z,64.25
2019-05-25T16:36:26.664Z,64.48
2019-05-25T16:38:55.071Z,64.90
2019-05-25T16:41:23.511Z,65.62
2019-05-25T16:43:51.976Z,66.10
2019-05-25T16:46:20.370Z,66.48
2019-05-25T16:48:48.784Z,66.68
2019-05-25T16:51:17.456Z,67.01
2019-05-25T16:53:45.872Z,67.25
2019-05-25T16:56:14.260Z,67.47
2019-05-25T16:58:42.796Z,67.64
2019-05-25T17:01:11.207Z,67.51
2019-05-25T17:03:39.609Z,67.76
2019-05-25T17:06:08.079Z,67.88
2019-05-25T17:08:36.474Z,67.79
2019-05-25T17:11:04.882Z,67.50
2019-05-25T17:13:33.473Z,67.65
2019-05-25T17:16:01.870Z,67.74
2019-05-25T17:18:30.272Z,67.62
2019-05-25T17:20:58.768Z,67.97
2019-05-25T17:23:27.182Z,67.89
2019-05-25T17:25:55.579Z,67.77
2019-05-25T17:28:24.012Z,67.60
2019-05-25T17:30:52.410Z,67.32
2019-05-25T17:33:20.880Z,67.09
2019-05-25T17:35:49.321Z,66.66
2019-05-25T17:38:17.716Z,66.73
2019-05-25T17:40:46.116Z,67.03
2019-05-25T17:43:14.641Z,67.39
2019-05-25T17:45:43.048Z,66.96
2019-05-25T17:48:11.448Z,66.64
2019-05-25T17:50:39.891Z,65.80
2019-05-25T17:53:08.296Z,65.57
2019-05-25T17:55:36.696Z,65.48
2019-05-25T17:58:05.616Z,65.41
2019-05-25T18:00:39.556Z,64.57
2019-05-25T18:03:08.328Z,64.69
2019-05-25T18:05:36.837Z,64.88
2019-05-25T18:08:05.899Z,64.56
2019-05-25T18:10:51.373Z,64.06
2019-05-25T18:13:05.430Z,64.36
2019-05-25T18:15:33.821Z,64.70
2019-05-25T18:18:02.221Z,64.59
2019-05-25T18:20:30.760Z,64.99
2019-05-25T18:22:59.165Z,64.70
2019-05-25T18:25:27.562Z,64.34
2019-05-25T18:27:56.071Z,63.84
2019-05-25T18:30:25.210Z,63.01
2019-05-25T18:32:54.364Z,62.97
2019-05-25T18:35:22.862Z,63.00
2019-05-25T18:37:51.271Z,63.42
2019-05-25T18:40:20.006Z,63.75
2019-05-25T18:42:48.616Z,64.18
2019-05-25T18:45:17.892Z,64.75
2019-05-25T18:47:46.281Z,65.15
2019-05-25T18:50:16.449Z,65.69
2019-05-25T18:52:44.860Z,66.12
2019-05-25T18:55:13.802Z,66.26
2019-05-25T18:57:42.234Z,66.26
2019-05-25T19:00:11.472Z,66.22
2019-05-25T19:02:39.870Z,66.42
2019-05-25T19:05:08.962Z,66.70
2019-05-25T19:07:37.494Z,67.18
2019-05-25T19:10:08.333Z,67.32
2019-05-25T19:12:36.934Z,67.08
2019-05-25T19:15:07.744Z,67.09
2019-05-25T19:17:39.149Z,67.01
2019-05-25T19:20:09.922Z,66.74
2019-05-25T19:22:38.360Z,66.64
2019-05-25T19:25:09.340Z,66.82
2019-05-25T19:27:37.917Z,66.91
2019-05-25T19:30:10.472Z,66.50
2019-05-25T19:32:38.944Z,66.07
2019-05-25T19:35:08.898Z,65.85
2019-05-25T19:37:37.296Z,65.81
2019-05-25T19:40:09.164Z,65.79
2019-05-25T19:42:37.452Z,65.91
2019-05-25T19:45:08.391Z,66.05
2019-05-25T19:47:36.812Z,66.19
2019-05-25T19:50:07.273Z,66.32
2019-05-25T19:52:35.747Z,66.73
2019-05-25T19:55:07.256Z,67.14
2019-05-25T19:57:35.852Z,67.51
2019-05-25T20:00:06.975Z,67.85
2019-05-25T20:02:35.515Z,67.90
2019-05-25T20:05:15.700Z,67.88
2019-05-25T20:07:36.066Z,67.85
2019-05-25T20:10:07.197Z,67.50
2019-05-25T20:12:35.637Z,67.19
2019-05-25T20:15:05.888Z,67.37
2019-05-25T20:17:34.284Z,67.76
2019-05-25T20:20:02.721Z,67.99
2019-05-25T20:22:31.118Z,67.99
2019-05-25T20:24:59.584Z,68.16
2019-05-25T20:27:28.074Z,68.11
2019-05-25T20:29:58.514Z,67.79
2019-05-25T20:32:29.233Z,67.79
2019-05-25T20:34:58.226Z,67.96
2019-05-25T20:37:26.634Z,67.87
2019-05-25T20:39:55.040Z,67.73
2019-05-25T20:42:23.464Z,67.77
2019-05-25T20:44:51.864Z,67.88
2019-05-25T20:47:20.269Z,68.11
2019-05-25T20:49:48.714Z,68.39
2019-05-25T20:52:17.111Z,68.39
2019-05-25T20:54:45.513Z,68.38
2019-05-25T20:57:13.949Z,68.39
2019-05-25T20:59:42.338Z,68.29
2019-05-25T21:02:10.741Z,68.46
2019-05-25T21:04:39.331Z,67.97
2019-05-25T21:07:07.731Z,67.79
2019-05-25T21:09:36.146Z,67.74
2019-05-25T21:12:04.734Z,67.49
2019-05-25T21:14:33.133Z,67.23
2019-05-25T21:17:01.536Z,67.46
2019-05-25T21:19:29.955Z,67.73
2019-05-25T21:21:58.360Z,67.91
2019-05-25T21:24:26.825Z,67.98
2019-05-25T21:26:55.274Z,67.67
2019-05-25T21:29:23.678Z,67.21
2019-05-25T21:31:52.112Z,67.45
2019-05-25T21:34:20.624Z,67.59
2019-05-25T21:36:49.018Z,67.65
2019-05-25T21:39:19.327Z,67.86
2019-05-25T21:41:47.728Z,68.15
2019-05-25T21:44:16.124Z,68.25
2019-05-25T21:46:44.522Z,68.37
2019-05-25T21:49:13.101Z,68.71
2019-05-25T21:51:41.502Z,69.14
2019-05-25T21:54:09.908Z,69.35
2019-05-25T21:56:38.366Z,69.49
2019-05-25T21:59:06.759Z,69.73
2019-05-25T22:01:35.220Z,69.78
2019-05-25T22:04:03.649Z,69.83
2019-05-25T22:06:32.040Z,69.92
2019-05-25T22:09:00.455Z,69.73
2019-05-25T22:11:28.864Z,69.26
2019-05-25T22:13:58.902Z,69.06
2019-05-25T22:16:27.299Z,69.37
2019-05-25T22:18:55.740Z,69.25
2019-05-25T22:21:24.136Z,69.48
2019-05-25T22:23:52.534Z,69.75
2019-05-25T22:26:20.968Z,69.94
2019-05-25T22:28:49.373Z,70.08
2019-05-25T22:31:17.944Z,70.36
2019-05-25T22:33:46.362Z,70.73
2019-05-25T22:36:14.769Z,70.96
2019-05-25T22:38:43.162Z,70.88
2019-05-25T22:41:11.605Z,71.01
2019-05-25T22:43:40.000Z,70.97
2019-05-25T22:46:08.398Z,71.23
2019-05-25T22:48:36.818Z,71.37
2019-05-25T22:51:05.222Z,71.27
2019-05-25T22:53:33.620Z,71.21
2019-05-25T22:56:02.062Z,71.48
2019-05-25T22:58:30.458Z,71.61
2019-05-25T23:01:01.601Z,71.82
2019-05-25T23:03:30.047Z,72.10
2019-05-25T23:05:58.436Z,72.14
2019-05-25T23:08:26.832Z,72.18
2019-05-25T23:10:55.262Z,72.21
2019-05-25T23:13:26.790Z,72.38
2019-05-25T23:15:55.190Z,72.44
2019-05-25T23:18:23.757Z,72.33
2019-05-25T23:20:52.158Z,72.30
2019-05-25T23:23:20.553Z,72.36
2019-05-25T23:25:49.117Z,72.45
2019-05-25T23:28:20.283Z,72.27
2019-05-25T23:30:48.677Z,72.33
2019-05-25T23:33:17.113Z,72.49
2019-05-25T23:35:45.517Z,72.55
2019-05-25T23:38:13.908Z,72.59
2019-05-25T23:40:42.346Z,72.69
2019-05-25T23:43:10.730Z,72.81
2019-05-25T23:45:39.201Z,72.96
2019-05-25T23:48:07.626Z,73.10
2019-05-25T23:50:36.020Z,73.31
2019-05-25T23:53:04.503Z,73.41
2019-05-25T23:55:32.980Z,73.51
2019-05-25T23:58:01.382Z,73.61
